createdAt,value
2019-05-13T00:02:13.361Z,0.70
2019-05-13T00:04:39.982Z,1.00
2019-05-13T00:07:06.325Z,0.90
2019-05-13T00:09:33.966Z,0.93
2019-05-13T00:12:00.609Z,1.00
2019-05-13T00:14:26.761Z,1.10
2019-05-13T00:16:53.694Z,0.90
2019-05-13T00:19:20.121Z,0.67
2019-05-13T00:21:46.421Z,0.80
2019-05-13T00:24:13.790Z,0.93
2019-05-13T00:26:40.238Z,0.83
2019-05-13T00:29:06.854Z,1.07
2019-05-13T00:31:33.769Z,0.90
2019-05-13T00:34:00.219Z,0.73
2019-05-13T00:36:26.450Z,1.00
2019-05-13T00:38:53.500Z,1.03
2019-05-13T00:41:19.851Z,0.80
2019-05-13T00:43:46.009Z,0.80
2019-05-13T00:46:14.215Z,0.90
2019-05-13T00:48:40.605Z,0.80
2019-05-13T00:51:06.868Z,1.23
2019-05-13T00:53:35.136Z,0.90
2019-05-13T00:56:01.378Z,0.93
2019-05-13T00:58:27.526Z,0.60
2019-05-13T01:00:54.713Z,0.77
2019-05-13T01:03:21.099Z,0.80
2019-05-13T01:05:47.461Z,0.77
2019-05-13T01:08:14.545Z,0.60
2019-05-13T01:10:41.076Z,0.73
2019-05-13T01:13:07.329Z,0.90
2019-05-13T01:15:34.333Z,0.50
2019-05-13T01:18:01.089Z,1.07
2019-05-13T01:20:27.349Z,0.70
2019-05-13T01:22:54.167Z,0.70
2019-05-13T01:25:20.627Z,0.93
2019-05-13T01:27:46.827Z,0.70
2019-05-13T01:30:13.552Z,0.77
2019-05-13T01:32:40.142Z,0.77
2019-05-13T01:35:06.881Z,0.70
2019-05-13T01:37:42.250Z,0.60
2019-05-13T01:40:04.902Z,0.60
2019-05-13T01:42:29.919Z,0.70
2019-05-13T01:44:56.160Z,0.80
2019-05-13T01:47:24.093Z,0.70
2019-05-13T01:49:50.414Z,0.90
2019-05-13T01:52:16.673Z,0.70
2019-05-13T01:54:44.239Z,0.83
2019-05-13T01:57:10.865Z,0.80
2019-05-13T01:59:37.389Z,0.83
2019-05-13T02:02:04.508Z,0.70
2019-05-13T02:04:30.704Z,0.70
2019-05-13T02:06:56.849Z,0.50
2019-05-13T02:09:24.423Z,0.83
2019-05-13T02:11:51.062Z,0.77
2019-05-13T02:14:17.247Z,0.83
2019-05-13T02:16:44.535Z,0.63
2019-05-13T02:19:10.995Z,0.80
2019-05-13T02:21:37.274Z,0.70
2019-05-13T02:24:04.284Z,1.03
2019-05-13T02:26:31.066Z,0.73
2019-05-13T02:28:57.318Z,0.67
2019-05-13T02:31:39.057Z,0.80
2019-05-13T02:33:53.055Z,0.63
2019-05-13T02:36:22.794Z,0.60
2019-05-13T02:38:47.762Z,0.90
2019-05-13T02:41:13.942Z,0.60
2019-05-13T02:43:44.207Z,0.70
2019-05-13T02:46:08.290Z,0.70
2019-05-13T02:48:34.544Z,0.70
2019-05-13T02:51:03.793Z,0.70
2019-05-13T02:53:28.910Z,0.60
2019-05-13T02:55:55.250Z,0.90
2019-05-13T02:58:24.183Z,0.73
2019-05-13T03:00:53.526Z,0.70
2019-05-13T03:03:17.965Z,0.60
2019-05-13T03:05:44.123Z,0.83
2019-05-13T03:08:12.789Z,0.80
2019-05-13T03:10:38.547Z,0.80
2019-05-13T03:13:04.833Z,0.60
2019-05-13T03:15:42.840Z,0.73
2019-05-13T03:18:13.031Z,0.90
2019-05-13T03:20:37.458Z,0.53
2019-05-13T03:23:03.725Z,0.90
2019-05-13T03:25:33.075Z,0.73
2019-05-13T03:27:58.431Z,0.80
2019-05-13T03:30:26.152Z,1.00
2019-05-13T03:33:00.578Z,0.67
2019-05-13T03:35:26.763Z,0.60
2019-05-13T03:37:52.573Z,0.60
2019-05-13T03:40:17.774Z,0.73
2019-05-13T03:42:43.923Z,0.60
2019-05-13T03:45:12.762Z,0.70
2019-05-13T03:47:42.172Z,0.90
2019-05-13T03:50:07.970Z,0.80
2019-05-13T03:52:34.130Z,0.87
2019-05-13T03:55:03.236Z,0.80
2019-05-13T03:57:28.974Z,0.87
2019-05-13T03:59:55.313Z,0.90
2019-05-13T04:02:22.752Z,0.73
2019-05-13T04:04:49.230Z,0.50
2019-05-13T04:07:15.566Z,0.90
2019-05-13T04:09:42.709Z,0.90
2019-05-13T04:12:09.074Z,0.73
2019-05-13T04:14:35.469Z,0.97
2019-05-13T04:17:02.996Z,0.87
2019-05-13T04:19:33.396Z,0.80
2019-05-13T04:21:58.460Z,1.00
2019-05-13T04:24:24.692Z,0.77
2019-05-13T04:26:53.345Z,0.50
2019-05-13T04:29:19.132Z,0.90
2019-05-13T04:31:45.415Z,0.80
2019-05-13T04:34:12.508Z,1.00
2019-05-13T04:36:39.049Z,0.70
2019-05-13T04:39:05.358Z,0.90
2019-05-13T04:41:33.191Z,0.70
2019-05-13T04:44:02.609Z,0.80
2019-05-13T04:46:28.639Z,0.87
2019-05-13T04:48:54.890Z,0.87
2019-05-13T04:51:22.593Z,0.93
2019-05-13T04:53:53.710Z,0.70
2019-05-13T04:56:17.752Z,0.53
2019-05-13T04:58:44.146Z,0.93
2019-05-13T05:01:18.614Z,1.13
2019-05-13T05:03:48.298Z,0.73
2019-05-13T05:06:34.753Z,1.73
2019-05-13T05:09:05.672Z,0.90
2019-05-13T05:11:42.605Z,0.80
2019-05-13T05:14:28.383Z,0.80
2019-05-13T05:17:15.991Z,1.00
2019-05-13T05:19:57.042Z,0.90
2019-05-13T05:22:33.092Z,1.07
2019-05-13T05:25:06.750Z,0.80
2019-05-13T05:27:37.753Z,0.80
2019-05-13T05:30:23.629Z,0.80
2019-05-13T05:33:08.159Z,0.67
2019-05-13T05:35:45.246Z,0.80
2019-05-13T05:38:25.703Z,1.03
2019-05-13T05:40:51.096Z,0.70
2019-05-13T05:43:18.861Z,1.00
2019-05-13T05:45:45.360Z,1.00
2019-05-13T05:48:13.478Z,0.77
2019-05-13T05:50:42.434Z,0.70
2019-05-13T05:53:11.164Z,0.70
2019-05-13T05:55:41.216Z,0.87
2019-05-13T05:58:07.755Z,0.70
2019-05-13T06:00:34.998Z,1.10
2019-05-13T06:03:02.630Z,0.70
2019-05-13T06:05:31.779Z,0.50
2019-05-13T06:07:57.601Z,0.77
2019-05-13T06:10:23.896Z,0.77
2019-05-13T06:12:52.274Z,0.70
2019-05-13T06:15:18.690Z,0.70
2019-05-13T06:17:45.030Z,0.80
2019-05-13T06:20:13.458Z,0.70
2019-05-13T06:22:39.578Z,0.40
2019-05-13T06:25:06.222Z,0.70
2019-05-13T06:27:32.713Z,0.70
2019-05-13T06:30:01.999Z,0.60
2019-05-13T06:32:27.074Z,0.87
2019-05-13T06:34:53.711Z,0.80
2019-05-13T06:37:21.685Z,0.70
2019-05-13T06:39:48.155Z,0.80
2019-05-13T06:42:14.715Z,0.87
2019-05-13T06:44:42.122Z,1.10
2019-05-13T06:47:11.337Z,0.67
2019-05-13T06:49:37.278Z,0.63
2019-05-13T06:52:03.581Z,0.50
2019-05-13T06:54:32.537Z,0.63
2019-05-13T06:56:57.887Z,0.47
2019-05-13T06:59:24.175Z,0.50
2019-05-13T07:01:51.398Z,0.70
2019-05-13T07:04:18.021Z,0.60
2019-05-13T07:06:44.384Z,0.70
2019-05-13T07:09:11.973Z,0.70
2019-05-13T07:11:38.600Z,0.50
2019-05-13T07:14:07.384Z,0.60
2019-05-13T07:16:33.559Z,1.03
2019-05-13T07:19:02.430Z,0.77
2019-05-13T07:21:28.444Z,0.70
2019-05-13T07:23:55.051Z,0.83
2019-05-13T07:26:22.183Z,0.50
2019-05-13T07:28:48.629Z,0.77
2019-05-13T07:31:14.966Z,0.70
2019-05-13T07:33:42.615Z,0.40
2019-05-13T07:36:09.222Z,0.57
2019-05-13T07:38:35.495Z,0.70
2019-05-13T07:41:02.986Z,0.53
2019-05-13T07:43:31.792Z,0.73
2019-05-13T07:45:57.552Z,0.60
2019-05-13T07:48:27.589Z,0.60
2019-05-13T07:50:59.922Z,0.50
2019-05-13T07:53:22.149Z,0.70
2019-05-13T07:55:48.217Z,1.40
2019-05-13T07:58:14.598Z,0.90
2019-05-13T08:00:41.905Z,0.57
2019-05-13T08:03:08.358Z,0.60
2019-05-13T08:05:34.662Z,0.70
2019-05-13T08:08:02.288Z,0.57
2019-05-13T08:10:28.882Z,0.50
2019-05-13T08:12:55.337Z,0.60
2019-05-13T08:15:22.416Z,0.50
2019-05-13T08:17:48.680Z,0.60
2019-05-13T08:20:15.045Z,1.23
2019-05-13T08:22:42.457Z,0.60
2019-05-13T08:25:08.993Z,0.77
2019-05-13T08:27:35.340Z,0.40
2019-05-13T08:30:02.022Z,0.57
2019-05-13T08:32:31.480Z,0.57
2019-05-13T08:35:06.976Z,0.43
2019-05-13T08:37:25.820Z,0.77
2019-05-13T08:39:52.324Z,0.40
2019-05-13T08:42:20.043Z,0.40
2019-05-13T08:44:46.861Z,0.40
2019-05-13T08:47:13.247Z,0.47
2019-05-13T08:49:41.453Z,0.70
2019-05-13T08:52:08.049Z,0.60
2019-05-13T08:54:34.734Z,0.47
2019-05-13T08:57:02.777Z,0.90
2019-05-13T08:59:31.773Z,0.80
2019-05-13T09:01:57.880Z,0.53
2019-05-13T09:04:24.166Z,1.13
2019-05-13T09:06:52.366Z,0.70
2019-05-13T09:09:18.782Z,0.53
2019-05-13T09:11:47.022Z,0.50
2019-05-13T09:14:13.285Z,0.50
2019-05-13T09:16:41.801Z,0.40
2019-05-13T09:19:07.779Z,0.50
2019-05-13T09:21:34.252Z,0.60
2019-05-13T09:24:02.200Z,0.60
2019-05-13T09:26:31.431Z,0.63
2019-05-13T09:28:57.490Z,0.40
2019-05-13T09:31:23.912Z,0.50
2019-05-13T09:33:52.111Z,0.80
2019-05-13T09:36:18.850Z,0.67
2019-05-13T09:38:45.162Z,0.60
2019-05-13T09:41:12.346Z,0.40
2019-05-13T09:43:38.774Z,0.50
2019-05-13T09:46:05.067Z,0.37
2019-05-13T09:48:32.088Z,0.37
2019-05-13T09:50:58.662Z,0.50
2019-05-13T09:53:25.198Z,0.40
2019-05-13T09:55:52.356Z,0.50
2019-05-13T09:58:18.947Z,0.67
2019-05-13T10:00:45.801Z,0.50
2019-05-13T10:03:13.822Z,0.50
2019-05-13T10:05:40.379Z,0.40
2019-05-13T10:08:06.779Z,0.37
2019-05-13T10:10:33.253Z,0.40
2019-05-13T10:13:11.376Z,0.40
2019-05-13T10:15:29.275Z,0.50
2019-05-13T10:17:55.518Z,0.47
2019-05-13T10:20:41.889Z,0.50
2019-05-13T10:23:07.498Z,0.70
2019-05-13T10:25:33.811Z,0.50
2019-05-13T10:28:02.107Z,0.50
2019-05-13T10:30:28.737Z,0.60
2019-05-13T10:32:59.322Z,0.40
2019-05-13T10:35:23.187Z,0.30
2019-05-13T10:37:49.699Z,0.50
2019-05-13T10:40:17.610Z,0.50
2019-05-13T10:42:43.886Z,1.00
2019-05-13T10:45:12.447Z,1.03
2019-05-13T10:47:38.570Z,0.43
2019-05-13T10:50:04.971Z,1.03
2019-05-13T10:52:32.200Z,0.63
2019-05-13T10:54:58.873Z,0.37
2019-05-13T10:57:27.146Z,0.50
2019-05-13T10:59:53.466Z,0.50
2019-05-13T11:02:22.173Z,0.40
2019-05-13T11:04:48.390Z,0.40
2019-05-13T11:07:14.721Z,0.53
2019-05-13T11:09:42.109Z,0.40
2019-05-13T11:12:12.151Z,0.50
2019-05-13T11:14:38.005Z,0.40
2019-05-13T11:17:04.611Z,0.50
2019-05-13T11:19:36.097Z,0.23
2019-05-13T11:22:00.230Z,0.60
2019-05-13T11:24:27.589Z,0.37
2019-05-13T11:26:54.162Z,0.57
2019-05-13T11:29:23.105Z,0.67
2019-05-13T11:31:52.111Z,0.47
2019-05-13T11:34:17.301Z,0.40
2019-05-13T11:36:44.124Z,0.40
2019-05-13T11:39:12.967Z,0.40
2019-05-13T11:41:38.635Z,0.30
2019-05-13T11:44:13.003Z,0.70
2019-05-13T11:46:33.476Z,0.47
2019-05-13T11:49:02.524Z,0.47
2019-05-13T11:51:28.121Z,0.40
2019-05-13T11:53:54.313Z,0.40
2019-05-13T11:56:22.966Z,0.40
2019-05-13T11:58:48.999Z,0.70
2019-05-13T12:01:16.378Z,0.50
2019-05-13T12:03:43.389Z,0.30
2019-05-13T12:06:10.237Z,0.50
2019-05-13T12:08:36.605Z,0.37
2019-05-13T12:11:04.044Z,0.40
2019-05-13T12:13:32.864Z,0.53
2019-05-13T12:16:03.252Z,0.50
2019-05-13T12:18:27.388Z,0.40
2019-05-13T12:20:54.349Z,0.40
2019-05-13T12:23:20.761Z,0.50
2019-05-13T12:25:47.097Z,1.07
2019-05-13T12:28:13.706Z,0.87
2019-05-13T12:30:41.761Z,0.30
2019-05-13T12:33:08.375Z,0.30
2019-05-13T12:35:35.180Z,0.40
2019-05-13T12:38:01.594Z,0.50
2019-05-13T12:40:27.969Z,0.70
2019-05-13T12:42:54.283Z,0.40
2019-05-13T12:45:22.426Z,0.50
2019-05-13T12:47:49.099Z,0.50
2019-05-13T12:50:15.835Z,0.77
2019-05-13T12:52:43.712Z,1.07
2019-05-13T12:55:14.106Z,0.63
2019-05-13T12:57:39.039Z,0.70
2019-05-13T13:00:06.222Z,0.63
2019-05-13T13:02:32.773Z,0.30
2019-05-13T13:05:13.466Z,0.40
2019-05-13T13:07:27.178Z,0.53
2019-05-13T13:09:53.963Z,0.70
2019-05-13T13:12:32.760Z,0.40
2019-05-13T13:14:48.510Z,0.50
2019-05-13T13:17:14.677Z,0.40
2019-05-13T13:19:41.735Z,0.40
2019-05-13T13:22:08.607Z,0.57
2019-05-13T13:24:34.894Z,0.60
2019-05-13T13:27:01.968Z,0.50
2019-05-13T13:29:28.279Z,0.47
2019-05-13T13:31:55.771Z,0.40
2019-05-13T13:34:26.533Z,0.50
2019-05-13T13:36:52.985Z,0.60
2019-05-13T13:39:24.902Z,0.50
2019-05-13T13:41:47.290Z,0.50
2019-05-13T13:44:14.053Z,0.60
2019-05-13T13:49:08.642Z,0.40
2019-05-13T13:51:34.974Z,0.77
2019-05-13T13:54:01.240Z,0.80
2019-05-13T13:56:27.558Z,0.83
2019-05-13T13:58:54.421Z,0.90
2019-05-13T14:01:26.966Z,0.60
2019-05-13T14:03:49.186Z,0.53
2019-05-13T14:07:13.009Z,0.53
2019-05-13T14:07:13.489Z,0.30
2019-05-13T14:08:43.730Z,0.50
2019-05-13T14:11:11.704Z,0.80
2019-05-13T14:13:38.302Z,0.70
2019-05-13T14:16:04.934Z,0.30
2019-05-13T14:18:31.826Z,0.70
2019-05-13T14:20:58.473Z,0.60
2019-05-13T14:23:25.134Z,0.40
2019-05-13T14:25:53.006Z,0.83
2019-05-13T14:28:22.575Z,0.50
2019-05-13T14:30:47.822Z,0.40
2019-05-13T14:33:14.478Z,0.50
2019-05-13T14:35:41.596Z,0.63
2019-05-13T14:38:08.295Z,0.70
2019-05-13T14:40:34.642Z,0.53
2019-05-13T14:43:03.726Z,0.60
2019-05-13T14:45:31.835Z,0.80
2019-05-13T14:47:58.254Z,0.53
2019-05-13T14:50:24.623Z,0.50
2019-05-13T14:52:52.385Z,0.53
2019-05-13T14:55:21.319Z,0.50
2019-05-13T14:57:47.193Z,0.90
2019-05-13T15:00:13.687Z,0.93
2019-05-13T15:02:42.138Z,0.60
2019-05-13T15:05:11.759Z,0.53
2019-05-13T15:07:37.119Z,0.47
2019-05-13T15:10:04.328Z,0.50
2019-05-13T15:12:32.329Z,0.40
2019-05-13T15:15:00.892Z,0.60
2019-05-13T15:17:27.282Z,0.60
2019-05-13T15:19:54.760Z,0.50
2019-05-13T15:22:22.685Z,0.60
2019-05-13T15:24:51.950Z,0.40
2019-05-13T15:27:18.409Z,0.67
2019-05-13T15:29:44.694Z,0.70
2019-05-13T15:32:10.954Z,1.13
2019-05-13T15:34:37.206Z,0.70
2019-05-13T15:37:03.562Z,0.80
2019-05-13T15:39:31.549Z,0.80
2019-05-13T15:41:58.080Z,0.70
2019-05-13T15:44:24.420Z,0.67
2019-05-13T15:46:52.321Z,1.10
2019-05-13T15:49:18.769Z,0.70
2019-05-13T15:51:44.945Z,0.60
2019-05-13T15:54:15.318Z,0.50
2019-05-13T15:56:39.758Z,0.77
2019-05-13T15:59:08.830Z,0.50
2019-05-13T16:01:34.546Z,0.73
2019-05-13T16:04:02.428Z,0.63
2019-05-13T16:06:29.253Z,0.60
2019-05-13T16:08:55.434Z,0.60
2019-05-13T16:11:22.248Z,0.93
2019-05-13T16:13:48.557Z,0.83
2019-05-13T16:16:14.879Z,0.87
2019-05-13T16:18:41.992Z,0.90
2019-05-13T16:21:08.567Z,1.00
2019-05-13T16:23:35.019Z,0.60
2019-05-13T16:26:01.954Z,0.93
2019-05-13T16:28:28.492Z,1.30
2019-05-13T16:30:55.002Z,1.40
2019-05-13T16:33:21.330Z,1.00
2019-05-13T16:35:47.821Z,1.10
2019-05-13T16:38:14.338Z,1.07
2019-05-13T16:40:42.354Z,0.90
2019-05-13T16:43:08.746Z,0.63
2019-05-13T16:45:35.213Z,1.00
2019-05-13T16:48:04.178Z,0.80
2019-05-13T16:50:31.266Z,0.97
2019-05-13T16:52:57.646Z,1.05
2019-05-13T16:55:24.190Z,0.73
2019-05-13T16:57:51.311Z,0.77
2019-05-13T17:00:18.007Z,0.93
2019-05-13T17:02:44.645Z,1.33
2019-05-13T17:05:12.096Z,0.90
2019-05-13T17:07:38.767Z,0.90
2019-05-13T17:10:05.609Z,0.70
2019-05-13T17:12:31.981Z,0.87
2019-05-13T17:14:58.506Z,0.90
2019-05-13T17:17:24.782Z,0.80
2019-05-13T17:19:53.751Z,0.80
2019-05-13T17:22:19.441Z,0.97
2019-05-13T17:24:45.687Z,0.90
2019-05-13T17:27:12.255Z,1.20
2019-05-13T17:29:38.733Z,0.83
2019-05-13T17:32:04.982Z,1.03
2019-05-13T17:34:31.848Z,1.10
2019-05-13T17:36:58.494Z,1.10
2019-05-13T17:39:25.010Z,0.70
2019-05-13T17:41:52.204Z,0.90
2019-05-13T17:44:18.657Z,0.97
2019-05-13T17:46:45.057Z,1.27
2019-05-13T17:49:11.959Z,1.13
2019-05-13T17:51:38.524Z,1.20
2019-05-13T17:54:05.071Z,1.30
2019-05-13T17:56:32.332Z,0.83
2019-05-13T17:58:58.932Z,1.30
2019-05-13T18:01:25.350Z,1.30
2019-05-13T18:03:51.879Z,0.90
2019-05-13T18:06:18.345Z,1.00
2019-05-13T18:08:44.782Z,1.33
2019-05-13T18:11:11.511Z,0.80
2019-05-13T18:13:40.793Z,0.90
2019-05-13T18:16:12.387Z,1.63
2019-05-13T18:18:43.991Z,1.57
2019-05-13T18:21:07.617Z,1.00
2019-05-13T18:23:33.907Z,0.80
2019-05-13T18:26:01.930Z,1.17
2019-05-13T18:28:31.505Z,0.87
2019-05-13T18:30:56.625Z,1.20
2019-05-13T18:33:22.813Z,1.00
2019-05-13T18:35:49.181Z,1.13
2019-05-13T18:38:15.506Z,1.10
2019-05-13T18:40:42.000Z,1.20
2019-05-13T18:43:08.754Z,1.53
2019-05-13T18:45:36.165Z,1.13
2019-05-13T18:48:02.504Z,1.17
2019-05-13T18:50:31.206Z,1.07
2019-05-13T18:52:57.341Z,1.10
2019-05-13T18:55:23.707Z,1.10
2019-05-13T18:57:51.859Z,1.07
2019-05-13T19:00:18.442Z,0.93
2019-05-13T19:02:44.907Z,0.83
2019-05-13T19:05:12.211Z,1.13
2019-05-13T19:07:38.882Z,1.00
2019-05-13T19:10:05.578Z,1.10
2019-05-13T19:12:31.877Z,0.80
2019-05-13T19:15:02.257Z,0.83
2019-05-13T19:17:32.221Z,0.70
2019-05-13T19:19:58.828Z,1.00
2019-05-13T19:22:25.238Z,1.20
2019-05-13T19:24:51.889Z,1.07
2019-05-13T19:27:18.474Z,1.07
2019-05-13T19:29:44.818Z,0.90
2019-05-13T19:32:12.453Z,0.90
2019-05-13T19:34:38.845Z,1.10
2019-05-13T19:37:07.302Z,1.20
2019-05-13T19:39:34.760Z,0.77
2019-05-13T19:42:01.493Z,1.53
2019-05-13T19:44:28.221Z,1.30
2019-05-13T19:46:54.516Z,1.10
2019-05-13T19:49:29.671Z,0.93
2019-05-13T19:51:51.977Z,0.90
2019-05-13T19:54:17.925Z,0.80
2019-05-13T19:56:44.200Z,0.90
2019-05-13T19:59:12.443Z,1.37
2019-05-13T20:01:38.705Z,1.10
2019-05-13T20:04:05.023Z,1.20
2019-05-13T20:06:32.100Z,0.90
2019-05-13T20:08:58.478Z,1.13
2019-05-13T20:11:24.819Z,1.20
2019-05-13T20:13:52.110Z,0.87
2019-05-13T20:16:18.926Z,1.00
2019-05-13T20:18:45.301Z,1.00
2019-05-13T20:21:13.575Z,0.90
2019-05-13T20:23:41.430Z,0.70
2019-05-13T20:26:07.982Z,0.90
2019-05-13T20:28:35.445Z,0.80
2019-05-13T20:31:02.153Z,1.10
2019-05-13T20:33:28.638Z,0.90
2019-05-13T20:35:55.149Z,0.70
2019-05-13T20:38:22.124Z,0.90
2019-05-13T20:40:49.002Z,0.90
2019-05-13T20:43:15.418Z,1.13
2019-05-13T20:45:42.227Z,1.00
2019-05-13T20:48:08.787Z,1.57
2019-05-13T20:50:35.133Z,1.10
2019-05-13T20:53:01.494Z,1.30
2019-05-13T20:55:27.939Z,1.10
2019-05-13T20:57:54.368Z,1.00
2019-05-13T21:00:20.694Z,1.20
2019-05-13T21:02:47.258Z,1.37
2019-05-13T21:05:13.667Z,1.13
2019-05-13T21:07:41.727Z,1.00
2019-05-13T21:10:08.346Z,1.10
2019-05-13T21:12:34.735Z,1.10
2019-05-13T21:15:01.590Z,0.83
2019-05-13T21:17:28.249Z,1.00
2019-05-13T21:20:01.009Z,1.20
2019-05-13T21:22:22.818Z,0.80
2019-05-13T21:24:51.365Z,0.73
2019-05-13T21:27:17.462Z,0.97
2019-05-13T21:29:43.818Z,1.00
2019-05-13T21:32:11.746Z,0.93
2019-05-13T21:34:38.278Z,0.90
2019-05-13T21:37:04.637Z,1.40
2019-05-13T21:39:31.975Z,1.10
2019-05-13T21:41:58.645Z,1.17
2019-05-13T21:44:25.006Z,1.10
2019-05-13T21:46:51.636Z,1.00
2019-05-13T21:49:17.960Z,1.20
2019-05-13T21:51:44.749Z,0.93
2019-05-13T21:54:11.846Z,1.00
2019-05-13T21:56:38.332Z,1.00
2019-05-13T21:59:04.690Z,1.00
2019-05-13T22:01:31.638Z,0.90
2019-05-13T22:03:57.926Z,1.07
2019-05-13T22:06:24.478Z,1.10
2019-05-13T22:08:51.850Z,1.00
2019-05-13T22:11:18.162Z,2.27
2019-05-13T22:13:44.397Z,0.97
2019-05-13T22:16:10.643Z,0.70
2019-05-13T22:18:36.794Z,1.10
2019-05-13T22:21:02.946Z,0.90
2019-05-13T22:23:29.253Z,1.10
2019-05-13T22:25:55.582Z,1.20
2019-05-13T22:28:22.123Z,0.90
2019-05-13T22:30:48.608Z,1.13
2019-05-13T22:33:14.742Z,0.90
2019-05-13T22:35:41.662Z,1.10
2019-05-13T22:38:08.259Z,1.07
2019-05-13T22:40:34.505Z,1.00
2019-05-13T22:43:00.691Z,1.60
2019-05-13T22:45:26.897Z,0.90
2019-05-13T22:47:53.063Z,1.07
2019-05-13T22:50:21.431Z,1.20
2019-05-13T22:52:47.850Z,1.60
2019-05-13T22:55:15.994Z,1.00
2019-05-13T22:57:42.273Z,1.37
2019-05-13T23:00:08.723Z,1.07
2019-05-13T23:02:34.962Z,1.23
2019-05-13T23:05:02.377Z,1.10
2019-05-13T23:07:28.634Z,1.07
2019-05-13T23:09:54.966Z,1.77
2019-05-13T23:12:21.355Z,1.20
2019-05-13T23:14:47.595Z,1.50
2019-05-13T23:17:13.753Z,1.40
2019-05-13T23:19:41.481Z,1.57
2019-05-13T23:22:07.885Z,1.40
2019-05-13T23:24:34.062Z,1.30
2019-05-13T23:27:02.193Z,1.47
2019-05-13T23:29:28.553Z,1.47
2019-05-13T23:31:54.861Z,1.20
2019-05-13T23:34:22.320Z,1.73
2019-05-13T23:36:48.721Z,1.50
2019-05-13T23:39:15.064Z,1.50
2019-05-13T23:41:41.766Z,1.40
2019-05-13T23:44:21.720Z,1.47
2019-05-13T23:46:36.413Z,1.60
2019-05-13T23:49:02.682Z,1.50
2019-05-13T23:51:28.968Z,1.40
2019-05-13T23:53:55.227Z,1.47
2019-05-13T23:56:21.894Z,1.33
2019-05-13T23:58:48.563Z,1.20
